sensor_id;sensor_type;location;lat;lon;timestamp;pressure;altitude;pressure_sealevel;temperature;humidity
9784;BME280;4931;44.874;-1.092;2022-08-21T00:01:19;101652.22;;;19.22;100.00
9784;BME280;4931;44.874;-1.092;2022-08-21T00:06:05;101655.81;;;19.22;100.00
9784;BME280;4931;44.874;-1.092;2022-08-21T00:10:55;101646.13;;;19.20;100.00
9784;BME280;4931;44.874;-1.092;2022-08-21T00:15:40;101652.41;;;19.26;100.00
9784;BME280;4931;44.874;-1.092;2022-08-21T00:20:29;101652.47;;;19.12;100.00
9784;BME280;4931;44.874;-1.092;2022-08-21T00:25:15;101655.78;;;19.14;100.00
9784;BME280;4931;44.874;-1.092;2022-08-21T00:30:07;101655.38;;;19.06;100.00
9784;BME280;4931;44.874;-1.092;2022-08-21T00:35:01;101656.94;;;18.99;100.00
9784;BME280;4931;44.874;-1.092;2022-08-21T00:39:49;101656.47;;;18.97;100.00
9784;BME280;4931;44.874;-1.092;2022-08-21T00:44:35;101658.94;;;18.98;100.00
9784;BME280;4931;44.874;-1.092;2022-08-21T00:49:21;101656.25;;;18.93;100.00
9784;BME280;4931;44.874;-1.092;2022-08-21T00:54:06;101668.84;;;18.90;100.00
9784;BME280;4931;44.874;-1.092;2022-08-21T00:59:02;101670.25;;;19.02;100.00
9784;BME280;4931;44.874;-1.092;2022-08-21T01:03:49;101662.47;;;18.90;100.00
9784;BME280;4931;44.874;-1.092;2022-08-21T01:08:37;101653.56;;;18.88;100.00
9784;BME280;4931;44.874;-1.092;2022-08-21T01:13:30;101664.31;;;18.81;100.00
9784;BME280;4931;44.874;-1.092;2022-08-21T01:18:21;101653.66;;;18.74;100.00
9784;BME280;4931;44.874;-1.092;2022-08-21T01:23:09;101653.44;;;18.70;100.00
9784;BME280;4931;44.874;-1.092;2022-08-21T01:27:54;101654.66;;;18.78;100.00
9784;BME280;4931;44.874;-1.092;2022-08-21T01:32:40;101650.09;;;18.82;100.00
9784;BME280;4931;44.874;-1.092;2022-08-21T01:37:25;101649.28;;;18.82;100.00
9784;BME280;4931;44.874;-1.092;2022-08-21T01:42:13;101642.91;;;18.81;100.00
9784;BME280;4931;44.874;-1.092;2022-08-21T01:47:00;101638.34;;;18.85;100.00
9784;BME280;4931;44.874;-1.092;2022-08-21T01:51:46;101645.16;;;18.79;100.00
9784;BME280;4931;44.874;-1.092;2022-08-21T01:56:36;101633.47;;;18.68;100.00
9784;BME280;4931;44.874;-1.092;2022-08-21T02:01:24;101630.09;;;18.71;100.00
9784;BME280;4931;44.874;-1.092;2022-08-21T02:06:14;101628.56;;;18.65;100.00
9784;BME280;4931;44.874;-1.092;2022-08-21T02:11:00;101624.75;;;18.61;100.00
9784;BME280;4931;44.874;-1.092;2022-08-21T02:15:46;101620.97;;;18.57;100.00
9784;BME280;4931;44.874;-1.092;2022-08-21T02:20:36;101627.25;;;18.49;100.00
9784;BME280;4931;44.874;-1.092;2022-08-21T02:25:24;101620.47;;;18.41;100.00
9784;BME280;4931;44.874;-1.092;2022-08-21T02:30:12;101621.63;;;18.40;100.00
9784;BME280;4931;44.874;-1.092;2022-08-21T02:34:57;101618.00;;;18.39;100.00
9784;BME280;4931;44.874;-1.092;2022-08-21T02:39:45;101626.34;;;18.39;100.00
9784;BME280;4931;44.874;-1.092;2022-08-21T02:44:31;101625.34;;;18.35;100.00
9784;BME280;4931;44.874;-1.092;2022-08-21T02:49:16;101617.22;;;18.25;100.00
9784;BME280;4931;44.874;-1.092;2022-08-21T02:54:01;101622.72;;;18.16;100.00
9784;BME280;4931;44.874;-1.092;2022-08-21T02:58:51;101610.28;;;18.14;100.00
9784;BME280;4931;44.874;-1.092;2022-08-21T03:03:38;101608.19;;;18.05;100.00
9784;BME280;4931;44.874;-1.092;2022-08-21T03:08:23;101604.41;;;18.01;100.00
9784;BME280;4931;44.874;-1.092;2022-08-21T03:13:09;101603.28;;;18.02;100.00
9784;BME280;4931;44.874;-1.092;2022-08-21T03:17:57;101593.72;;;18.08;100.00
9784;BME280;4931;44.874;-1.092;2022-08-21T03:22:42;101595.16;;;18.06;100.00
9784;BME280;4931;44.874;-1.092;2022-08-21T03:27:34;101594.31;;;18.05;100.00
9784;BME280;4931;44.874;-1.092;2022-08-21T03:32:22;101599.47;;;17.98;100.00
9784;BME280;4931;44.874;-1.092;2022-08-21T03:37:09;101592.56;;;17.82;100.00
9784;BME280;4931;44.874;-1.092;2022-08-21T03:41:55;101592.66;;;17.76;100.00
9784;BME280;4931;44.874;-1.092;2022-08-21T03:46:40;101595.34;;;17.82;100.00
9784;BME280;4931;44.874;-1.092;2022-08-21T03:51:25;101606.25;;;17.78;100.00
9784;BME280;4931;44.874;-1.092;2022-08-21T03:56:14;101603.75;;;17.76;100.00
9784;BME280;4931;44.874;-1.092;2022-08-21T04:01:00;101595.53;;;17.71;100.00
9784;BME280;4931;44.874;-1.092;2022-08-21T04:05:49;101602.53;;;17.69;100.00
9784;BME280;4931;44.874;-1.092;2022-08-21T04:10:36;101603.97;;;17.66;100.00
9784;BME280;4931;44.874;-1.092;2022-08-21T04:15:25;101612.81;;;17.68;100.00
9784;BME280;4931;44.874;-1.092;2022-08-21T04:20:10;101630.59;;;17.53;100.00
9784;BME280;4931;44.874;-1.092;2022-08-21T04:24:56;101612.59;;;17.51;100.00
9784;BME280;4931;44.874;-1.092;2022-08-21T04:29:41;101612.56;;;17.37;100.00
9784;BME280;4931;44.874;-1.092;2022-08-21T04:34:29;101618.66;;;17.39;100.00
9784;BME280;4931;44.874;-1.092;2022-08-21T04:39:14;101619.38;;;17.45;100.00
9784;BME280;4931;44.874;-1.092;2022-08-21T04:44:00;101629.66;;;17.44;100.00
9784;BME280;4931;44.874;-1.092;2022-08-21T04:48:45;101637.66;;;17.46;100.00
9784;BME280;4931;44.874;-1.092;2022-08-21T04:53:36;101654.31;;;17.46;100.00
9784;BME280;4931;44.874;-1.092;2022-08-21T04:58:24;101655.13;;;17.46;100.00
9784;BME280;4931;44.874;-1.092;2022-08-21T05:03:11;101655.94;;;17.47;100.00
9784;BME280;4931;44.874;-1.092;2022-08-21T05:07:59;101655.16;;;17.60;100.00
9784;BME280;4931;44.874;-1.092;2022-08-21T05:12:49;101649.59;;;17.60;100.00
9784;BME280;4931;44.874;-1.092;2022-08-21T05:17:34;101643.22;;;17.59;100.00
9784;BME280;4931;44.874;-1.092;2022-08-21T05:22:20;101639.31;;;17.61;100.00
9784;BME280;4931;44.874;-1.092;2022-08-21T05:27:06;101631.22;;;17.64;100.00
9784;BME280;4931;44.874;-1.092;2022-08-21T05:31:54;101621.34;;;17.58;100.00
9784;BME280;4931;44.874;-1.092;2022-08-21T05:36:39;101624.09;;;17.58;100.00
9784;BME280;4931;44.874;-1.092;2022-08-21T05:41:24;101636.84;;;17.59;100.00
9784;BME280;4931;44.874;-1.092;2022-08-21T05:46:10;101645.69;;;17.61;100.00
9784;BME280;4931;44.874;-1.092;2022-08-21T05:51:03;101644.03;;;17.74;100.00
9784;BME280;4931;44.874;-1.092;2022-08-21T05:55:49;101657.91;;;17.74;100.00
9784;BME280;4931;44.874;-1.092;2022-08-21T06:00:34;101660.50;;;17.70;100.00
9784;BME280;4931;44.874;-1.092;2022-08-21T06:05:21;101657.63;;;17.75;100.00
9784;BME280;4931;44.874;-1.092;2022-08-21T06:10:20;101661.09;;;17.67;100.00
9784;BME280;4931;44.874;-1.092;2022-08-21T06:15:07;101660.69;;;17.60;100.00
9784;BME280;4931;44.874;-1.092;2022-08-21T06:19:53;101666.66;;;17.67;100.00
9784;BME280;4931;44.874;-1.092;2022-08-21T06:24:38;101684.66;;;17.84;100.00
9784;BME280;4931;44.874;-1.092;2022-08-21T06:29:26;101668.72;;;17.89;100.00
9784;BME280;4931;44.874;-1.092;2022-08-21T06:34:25;101670.06;;;17.92;100.00
9784;BME280;4931;44.874;-1.092;2022-08-21T06:39:11;101671.75;;;18.07;100.00
9784;BME280;4931;44.874;-1.092;2022-08-21T06:44:06;101663.41;;;18.21;100.00
9784;BME280;4931;44.874;-1.092;2022-08-21T06:48:54;101652.56;;;18.84;100.00
9784;BME280;4931;44.874;-1.092;2022-08-21T06:53:40;101666.38;;;18.89;100.00
9784;BME280;4931;44.874;-1.092;2022-08-21T06:58:25;101670.94;;;18.71;100.00
9784;BME280;4931;44.874;-1.092;2022-08-21T07:03:17;101682.41;;;18.92;100.00
9784;BME280;4931;44.874;-1.092;2022-08-21T07:08:05;101680.25;;;19.34;100.00
9784;BME280;4931;44.874;-1.092;2022-08-21T07:12:54;101669.91;;;19.26;100.00
9784;BME280;4931;44.874;-1.092;2022-08-21T07:17:42;101654.47;;;19.20;100.00
9784;BME280;4931;44.874;-1.092;2022-08-21T07:22:27;101656.69;;;19.32;100.00
9784;BME280;4931;44.874;-1.092;2022-08-21T07:27:16;101657.59;;;19.72;100.00
9784;BME280;4931;44.874;-1.092;2022-08-21T07:32:01;101658.47;;;19.82;100.00
9784;BME280;4931;44.874;-1.092;2022-08-21T07:36:46;101659.38;;;20.09;100.00
9784;BME280;4931;44.874;-1.092;2022-08-21T07:41:32;101670.00;;;20.06;100.00
9784;BME280;4931;44.874;-1.092;2022-08-21T07:46:22;101664.63;;;20.10;100.00
9784;BME280;4931;44.874;-1.092;2022-08-21T07:51:10;101669.72;;;20.17;100.00
9784;BME280;4931;44.874;-1.092;2022-08-21T07:55:57;101666.94;;;20.26;100.00
9784;BME280;4931;44.874;-1.092;2022-08-21T08:00:42;101640.41;;;20.28;100.00
9784;BME280;4931;44.874;-1.092;2022-08-21T08:05:31;101644.63;;;20.17;100.00
9784;BME280;4931;44.874;-1.092;2022-08-21T08:10:19;101665.78;;;20.18;100.00
9784;BME280;4931;44.874;-1.092;2022-08-21T08:15:07;101643.00;;;20.16;100.00
9784;BME280;4931;44.874;-1.092;2022-08-21T08:19:54;101654.97;;;20.16;100.00
9784;BME280;4931;44.874;-1.092;2022-08-21T08:24:42;101657.47;;;20.35;100.00
9784;BME280;4931;44.874;-1.092;2022-08-21T08:29:27;101660.59;;;20.60;100.00
9784;BME280;4931;44.874;-1.092;2022-08-21T08:34:12;101669.47;;;20.62;100.00
9784;BME280;4931;44.874;-1.092;2022-08-21T08:39:06;101662.41;;;20.56;100.00
9784;BME280;4931;44.874;-1.092;2022-08-21T08:44:10;101657.66;;;20.65;100.00
9784;BME280;4931;44.874;-1.092;2022-08-21T08:49:00;101645.88;;;20.68;100.00
9784;BME280;4931;44.874;-1.092;2022-08-21T08:53:51;101647.53;;;20.87;100.00
9784;BME280;4931;44.874;-1.092;2022-08-21T08:58:39;101668.97;;;21.30;100.00
9784;BME280;4931;44.874;-1.092;2022-08-21T09:03:28;101654.97;;;21.48;100.00
9784;BME280;4931;44.874;-1.092;2022-08-21T09:08:24;101655.16;;;21.90;100.00
9784;BME280;4931;44.874;-1.092;2022-08-21T09:13:17;101655.88;;;22.17;100.00
9784;BME280;4931;44.874;-1.092;2022-08-21T09:18:25;101648.97;;;22.14;100.00
9784;BME280;4931;44.874;-1.092;2022-08-21T09:23:25;101652.09;;;22.85;100.00
9784;BME280;4931;44.874;-1.092;2022-08-21T09:28:14;101652.09;;;22.85;100.00
9784;BME280;4931;44.874;-1.092;2022-08-21T09:32:59;101660.78;;;22.71;100.00
9784;BME280;4931;44.874;-1.092;2022-08-21T09:37:49;101646.44;;;22.73;100.00
9784;BME280;4931;44.874;-1.092;2022-08-21T09:42:37;101653.25;;;23.05;100.00
9784;BME280;4931;44.874;-1.092;2022-08-21T09:47:26;101653.94;;;22.81;100.00
9784;BME280;4931;44.874;-1.092;2022-08-21T09:52:17;101643.03;;;22.88;100.00
9784;BME280;4931;44.874;-1.092;2022-08-21T09:57:14;101635.94;;;22.91;100.00
9784;BME280;4931;44.874;-1.092;2022-08-21T10:02:27;101644.09;;;23.17;100.00
9784;BME280;4931;44.874;-1.092;2022-08-21T10:07:14;101645.19;;;23.03;100.00
9784;BME280;4931;44.874;-1.092;2022-08-21T10:12:09;101652.56;;;22.87;100.00
9784;BME280;4931;44.874;-1.092;2022-08-21T10:17:01;101648.34;;;22.81;100.00
9784;BME280;4931;44.874;-1.092;2022-08-21T10:21:59;101644.41;;;22.82;100.00
9784;BME280;4931;44.874;-1.092;2022-08-21T10:26:52;101635.38;;;22.97;100.00
9784;BME280;4931;44.874;-1.092;2022-08-21T10:31:49;101641.53;;;23.24;100.00
9784;BME280;4931;44.874;-1.092;2022-08-21T10:36:44;101636.44;;;23.26;100.00
9784;BME280;4931;44.874;-1.092;2022-08-21T10:41:46;101626.63;;;23.20;100.00
9784;BME280;4931;44.874;-1.092;2022-08-21T10:46:47;101631.69;;;23.39;100.00
9784;BME280;4931;44.874;-1.092;2022-08-21T10:51:39;101636.94;;;23.41;100.00
9784;BME280;4931;44.874;-1.092;2022-08-21T10:56:29;101623.16;;;23.48;100.00
9784;BME280;4931;44.874;-1.092;2022-08-21T11:01:22;101633.47;;;23.56;100.00
9784;BME280;4931;44.874;-1.092;2022-08-21T11:06:14;101630.44;;;23.61;100.00
9784;BME280;4931;44.874;-1.092;2022-08-21T11:11:04;101628.56;;;23.78;100.00
9784;BME280;4931;44.874;-1.092;2022-08-21T11:15:56;101613.63;;;23.86;100.00
9784;BME280;4931;44.874;-1.092;2022-08-21T11:20:56;101619.72;;;24.13;100.00
9784;BME280;4931;44.874;-1.092;2022-08-21T11:25:47;101614.25;;;24.57;100.00
9784;BME280;4931;44.874;-1.092;2022-08-21T11:30:40;101605.09;;;24.73;100.00
9784;BME280;4931;44.874;-1.092;2022-08-21T11:35:34;101602.81;;;25.35;100.00
9784;BME280;4931;44.874;-1.092;2022-08-21T11:40:37;101584.69;;;25.64;100.00
9784;BME280;4931;44.874;-1.092;2022-08-21T11:45:32;101581.41;;;25.78;100.00
9784;BME280;4931;44.874;-1.092;2022-08-21T11:50:26;101580.22;;;26.31;100.00
9784;BME280;4931;44.874;-1.092;2022-08-21T11:55:19;101575.19;;;26.60;100.00
9784;BME280;4931;44.874;-1.092;2022-08-21T12:00:13;101583.25;;;27.00;100.00
9784;BME280;4931;44.874;-1.092;2022-08-21T12:05:06;101568.97;;;27.13;100.00
9784;BME280;4931;44.874;-1.092;2022-08-21T12:09:54;101573.03;;;27.15;100.00
9784;BME280;4931;44.874;-1.092;2022-08-21T12:14:43;101566.44;;;26.65;100.00
9784;BME280;4931;44.874;-1.092;2022-08-21T12:19:33;101575.56;;;26.39;100.00
9784;BME280;4931;44.874;-1.092;2022-08-21T12:24:20;101585.00;;;26.30;100.00
9784;BME280;4931;44.874;-1.092;2022-08-21T12:29:22;101581.84;;;25.96;100.00
9784;BME280;4931;44.874;-1.092;2022-08-21T12:34:09;101577.28;;;26.08;100.00
9784;BME280;4931;44.874;-1.092;2022-08-21T12:39:00;101592.16;;;25.92;100.00
9784;BME280;4931;44.874;-1.092;2022-08-21T12:43:51;101593.25;;;26.04;100.00
9784;BME280;4931;44.874;-1.092;2022-08-21T12:48:42;101587.00;;;25.94;100.00
9784;BME280;4931;44.874;-1.092;2022-08-21T12:53:31;101611.34;;;26.22;100.00
9784;BME280;4931;44.874;-1.092;2022-08-21T12:58:22;101613.47;;;26.09;100.00
9784;BME280;4931;44.874;-1.092;2022-08-21T13:03:09;101606.47;;;26.19;100.00
9784;BME280;4931;44.874;-1.092;2022-08-21T13:07:54;101608.66;;;26.45;100.00
9784;BME280;4931;44.874;-1.092;2022-08-21T13:12:41;101595.63;;;26.37;100.00
9784;BME280;4931;44.874;-1.092;2022-08-21T13:17:31;101603.69;;;26.39;100.00
9784;BME280;4931;44.874;-1.092;2022-08-21T13:22:19;101581.91;;;26.35;100.00
9784;BME280;4931;44.874;-1.092;2022-08-21T13:27:18;101581.50;;;26.53;100.00
9784;BME280;4931;44.874;-1.092;2022-08-21T13:32:05;101574.94;;;26.10;100.00
9784;BME280;4931;44.874;-1.092;2022-08-21T13:37:02;101583.84;;;26.51;100.00
9784;BME280;4931;44.874;-1.092;2022-08-21T13:41:52;101586.38;;;26.76;100.00
9784;BME280;4931;44.874;-1.092;2022-08-21T13:46:39;101575.38;;;26.12;100.00
9784;BME280;4931;44.874;-1.092;2022-08-21T13:51:26;101568.75;;;26.20;100.00
9784;BME280;4931;44.874;-1.092;2022-08-21T13:56:25;101565.88;;;26.36;100.00
9784;BME280;4931;44.874;-1.092;2022-08-21T14:01:19;101562.50;;;26.70;100.00
9784;BME280;4931;44.874;-1.092;2022-08-21T14:06:11;101556.00;;;26.65;100.00
9784;BME280;4931;44.874;-1.092;2022-08-21T14:10:58;101552.59;;;26.56;100.00
9784;BME280;4931;44.874;-1.092;2022-08-21T14:15:54;101545.94;;;26.64;100.00
9784;BME280;4931;44.874;-1.092;2022-08-21T14:20:40;101546.53;;;26.54;100.00
9784;BME280;4931;44.874;-1.092;2022-08-21T14:25:31;101552.22;;;26.58;100.00
9784;BME280;4931;44.874;-1.092;2022-08-21T14:30:29;101544.38;;;26.87;100.00
9784;BME280;4931;44.874;-1.092;2022-08-21T14:35:18;101552.59;;;26.56;100.00
9784;BME280;4931;44.874;-1.092;2022-08-21T14:40:06;101553.34;;;26.53;100.00
9784;BME280;4931;44.874;-1.092;2022-08-21T14:44:59;101546.38;;;26.66;100.00
9784;BME280;4931;44.874;-1.092;2022-08-21T14:49:46;101553.78;;;26.35;100.00
9784;BME280;4931;44.874;-1.092;2022-08-21T14:54:35;101558.91;;;26.30;100.00
9784;BME280;4931;44.874;-1.092;2022-08-21T14:59:21;101538.84;;;26.31;100.00
9784;BME280;4931;44.874;-1.092;2022-08-21T15:04:07;101553.34;;;26.14;100.00
9784;BME280;4931;44.874;-1.092;2022-08-21T15:08:53;101548.31;;;25.88;100.00
9784;BME280;4931;44.874;-1.092;2022-08-21T15:13:40;101542.38;;;26.09;100.00
9784;BME280;4931;44.874;-1.092;2022-08-21T15:18:28;101553.78;;;26.00;100.00
9784;BME280;4931;44.874;-1.092;2022-08-21T15:23:13;101558.63;;;25.99;100.00
9784;BME280;4931;44.874;-1.092;2022-08-21T15:27:59;101549.34;;;25.63;100.00
9784;BME280;4931;44.874;-1.092;2022-08-21T15:32:47;101559.09;;;25.85;100.00
9784;BME280;4931;44.874;-1.092;2022-08-21T15:37:32;101545.81;;;25.66;100.00
9784;BME280;4931;44.874;-1.092;2022-08-21T15:42:18;101551.97;;;25.56;100.00
9784;BME280;4931;44.874;-1.092;2022-08-21T15:47:04;101547.00;;;25.49;100.00
9784;BME280;4931;44.874;-1.092;2022-08-21T15:51:52;101547.09;;;25.53;100.00
9784;BME280;4931;44.874;-1.092;2022-08-21T15:56:39;101548.19;;;25.48;100.00
9784;BME280;4931;44.874;-1.092;2022-08-21T16:01:28;101546.38;;;25.56;100.00
9784;BME280;4931;44.874;-1.092;2022-08-21T16:06:26;101552.94;;;25.32;100.00
9784;BME280;4931;44.874;-1.092;2022-08-21T16:11:34;101547.69;;;25.30;100.00
9784;BME280;4931;44.874;-1.092;2022-08-21T16:16:21;101544.53;;;25.16;100.00
9784;BME280;4931;44.874;-1.092;2022-08-21T16:21:07;101551.59;;;25.10;100.00
9784;BME280;4931;44.874;-1.092;2022-08-21T16:25:52;101551.78;;;25.17;100.00
9784;BME280;4931;44.874;-1.092;2022-08-21T16:30:42;101550.50;;;24.98;100.00
9784;BME280;4931;44.874;-1.092;2022-08-21T16:35:28;101549.09;;;24.76;100.00
9784;BME280;4931;44.874;-1.092;2022-08-21T16:40:14;101558.50;;;24.68;100.00
9784;BME280;4931;44.874;-1.092;2022-08-21T16:44:59;101549.06;;;24.48;100.00
9784;BME280;4931;44.874;-1.092;2022-08-21T16:49:48;101551.63;;;24.53;100.00
9784;BME280;4931;44.874;-1.092;2022-08-21T16:54:34;101548.66;;;24.33;100.00
9784;BME280;4931;44.874;-1.092;2022-08-21T16:59:20;101556.28;;;24.20;100.00
9784;BME280;4931;44.874;-1.092;2022-08-21T17:04:05;101553.63;;;24.12;100.00
9784;BME280;4931;44.874;-1.092;2022-08-21T17:08:53;101551.97;;;24.11;100.00
9784;BME280;4931;44.874;-1.092;2022-08-21T17:13:38;101539.13;;;24.10;100.00
9784;BME280;4931;44.874;-1.092;2022-08-21T17:18:24;101546.50;;;24.14;100.00
9784;BME280;4931;44.874;-1.092;2022-08-21T17:23:10;101538.81;;;24.11;100.00
9784;BME280;4931;44.874;-1.092;2022-08-21T17:27:58;101543.38;;;23.91;100.00
9784;BME280;4931;44.874;-1.092;2022-08-21T17:32:45;101543.59;;;23.86;100.00
9784;BME280;4931;44.874;-1.092;2022-08-21T17:37:31;101546.19;;;23.79;100.00
9784;BME280;4931;44.874;-1.092;2022-08-21T17:42:17;101531.25;;;23.62;100.00
9784;BME280;4931;44.874;-1.092;2022-08-21T17:47:07;101542.91;;;23.52;100.00
9784;BME280;4931;44.874;-1.092;2022-08-21T17:51:52;101544.41;;;23.49;100.00
9784;BME280;4931;44.874;-1.092;2022-08-21T17:56:40;101534.28;;;23.32;100.00
9784;BME280;4931;44.874;-1.092;2022-08-21T18:01:28;101543.59;;;23.24;100.00
9784;BME280;4931;44.874;-1.092;2022-08-21T18:06:19;101538.94;;;23.28;100.00
9784;BME280;4931;44.874;-1.092;2022-08-21T18:11:04;101551.53;;;23.22;100.00
9784;BME280;4931;44.874;-1.092;2022-08-21T18:15:52;101537.28;;;23.15;100.00
9784;BME280;4931;44.874;-1.092;2022-08-21T18:20:38;101544.00;;;23.01;100.00
9784;BME280;4931;44.874;-1.092;2022-08-21T18:25:27;101548.16;;;22.95;100.00
9784;BME280;4931;44.874;-1.092;2022-08-21T18:30:13;101540.56;;;22.83;100.00
9784;BME280;4931;44.874;-1.092;2022-08-21T18:35:01;101547.78;;;22.72;100.00
9784;BME280;4931;44.874;-1.092;2022-08-21T18:39:46;101537.19;;;22.78;100.00
9784;BME280;4931;44.874;-1.092;2022-08-21T18:44:36;101535.88;;;22.75;100.00
9784;BME280;4931;44.874;-1.092;2022-08-21T18:49:21;101539.25;;;22.68;100.00
9784;BME280;4931;44.874;-1.092;2022-08-21T18:54:07;101542.25;;;22.63;100.00
9784;BME280;4931;44.874;-1.092;2022-08-21T18:59:13;101542.25;;;22.63;100.00
9784;BME280;4931;44.874;-1.092;2022-08-21T19:04:01;101546.50;;;22.48;100.00
9784;BME280;4931;44.874;-1.092;2022-08-21T19:08:49;101554.41;;;22.46;100.00
9784;BME280;4931;44.874;-1.092;2022-08-21T19:13:37;101553.81;;;22.41;100.00
9784;BME280;4931;44.874;-1.092;2022-08-21T19:18:24;101551.66;;;22.16;100.00
9784;BME280;4931;44.874;-1.092;2022-08-21T19:23:14;101550.56;;;22.30;100.00
9784;BME280;4931;44.874;-1.092;2022-08-21T19:28:15;101549.31;;;21.76;100.00
9784;BME280;4931;44.874;-1.092;2022-08-21T19:33:02;101567.75;;;21.68;100.00
9784;BME280;4931;44.874;-1.092;2022-08-21T19:37:48;101569.16;;;21.75;100.00
9784;BME280;4931;44.874;-1.092;2022-08-21T19:42:36;101575.09;;;21.73;100.00
9784;BME280;4931;44.874;-1.092;2022-08-21T19:47:22;101573.50;;;21.63;100.00
9784;BME280;4931;44.874;-1.092;2022-08-21T19:52:10;101574.34;;;21.55;100.00
9784;BME280;4931;44.874;-1.092;2022-08-21T19:56:58;101575.34;;;21.50;100.00
9784;BME280;4931;44.874;-1.092;2022-08-21T20:01:48;101572.22;;;21.52;100.00
9784;BME280;4931;44.874;-1.092;2022-08-21T20:06:34;101556.63;;;21.60;100.00
9784;BME280;4931;44.874;-1.092;2022-08-21T20:11:25;101566.28;;;21.62;100.00
9784;BME280;4931;44.874;-1.092;2022-08-21T20:16:13;101568.28;;;21.53;100.00
9784;BME280;4931;44.874;-1.092;2022-08-21T20:21:01;101571.56;;;21.55;100.00
9784;BME280;4931;44.874;-1.092;2022-08-21T20:25:46;101579.94;;;21.55;100.00
9784;BME280;4931;44.874;-1.092;2022-08-21T20:30:32;101571.56;;;21.55;100.00
9784;BME280;4931;44.874;-1.092;2022-08-21T20:35:27;101568.28;;;21.53;100.00
9784;BME280;4931;44.874;-1.092;2022-08-21T20:40:15;101566.56;;;21.22;100.00
9784;BME280;4931;44.874;-1.092;2022-08-21T20:45:23;101572.56;;;21.42;100.00
9784;BME280;4931;44.874;-1.092;2022-08-21T20:50:11;101570.81;;;21.37;100.00
9784;BME280;4931;44.874;-1.092;2022-08-21T20:55:00;101569.69;;;21.29;100.00
9784;BME280;4931;44.874;-1.092;2022-08-21T20:59:54;101573.31;;;21.21;100.00
9784;BME280;4931;44.874;-1.092;2022-08-21T21:04:43;101570.53;;;21.21;100.00
9784;BME280;4931;44.874;-1.092;2022-08-21T21:09:35;101584.66;;;21.16;100.00
9784;BME280;4931;44.874;-1.092;2022-08-21T21:14:30;101579.91;;;21.08;100.00
9784;BME280;4931;44.874;-1.092;2022-08-21T21:19:28;101578.78;;;21.00;100.00
9784;BME280;4931;44.874;-1.092;2022-08-21T21:24:21;101580.91;;;20.94;100.00
9784;BME280;4931;44.874;-1.092;2022-08-21T21:29:13;101575.03;;;20.87;100.00
9784;BME280;4931;44.874;-1.092;2022-08-21T21:34:00;101577.84;;;20.78;100.00
9784;BME280;4931;44.874;-1.092;2022-08-21T21:38:52;101582.56;;;20.60;100.00
9784;BME280;4931;44.874;-1.092;2022-08-21T21:44:03;101577.81;;;20.52;100.00
9784;BME280;4931;44.874;-1.092;2022-08-21T21:49:00;101569.81;;;20.50;100.00
9784;BME280;4931;44.874;-1.092;2022-08-21T21:54:10;101562.72;;;20.35;100.00
9784;BME280;4931;44.874;-1.092;2022-08-21T21:59:23;101566.19;;;20.32;100.00
9784;BME280;4931;44.874;-1.092;2022-08-21T22:04:18;101561.41;;;20.33;100.00
9784;BME280;4931;44.874;-1.092;2022-08-21T22:09:16;101563.56;;;20.27;100.00
9784;BME280;4931;44.874;-1.092;2022-08-21T22:14:09;101566.50;;;20.22;100.00
9784;BME280;4931;44.874;-1.092;2022-08-21T22:18:59;101558.28;;;20.17;100.00
9784;BME280;4931;44.874;-1.092;2022-08-21T22:23:50;101559.63;;;20.11;100.00
9784;BME280;4931;44.874;-1.092;2022-08-21T22:28:42;101552.06;;;20.11;100.00
9784;BME280;4931;44.874;-1.092;2022-08-21T22:33:28;101551.56;;;20.09;100.00
9784;BME280;4931;44.874;-1.092;2022-08-21T22:38:17;101568.13;;;20.05;100.00
9784;BME280;4931;44.874;-1.092;2022-08-21T22:43:05;101568.28;;;20.09;100.00
9784;BME280;4931;44.874;-1.092;2022-08-21T22:47:53;101578.94;;;20.16;100.00
9784;BME280;4931;44.874;-1.092;2022-08-21T22:52:44;101571.75;;;20.15;100.00
9784;BME280;4931;44.874;-1.092;2022-08-21T22:57:32;101563.03;;;20.07;100.00
9784;BME280;4931;44.874;-1.092;2022-08-21T23:02:36;101575.84;;;20.17;100.00
9784;BME280;4931;44.874;-1.092;2022-08-21T23:07:39;101564.84;;;20.21;100.00
9784;BME280;4931;44.874;-1.092;2022-08-21T23:12:35;101566.97;;;20.15;100.00
9784;BME280;4931;44.874;-1.092;2022-08-21T23:17:32;101572.72;;;20.19;100.00
9784;BME280;4931;44.874;-1.092;2022-08-21T23:22:35;101571.59;;;20.20;100.00
9784;BME280;4931;44.874;-1.092;2022-08-21T23:27:34;101569.63;;;20.20;100.00
9784;BME280;4931;44.874;-1.092;2022-08-21T23:32:37;101566.50;;;20.22;100.00
9784;BME280;4931;44.874;-1.092;2022-08-21T23:37:53;101562.56;;;20.23;100.00
9784;BME280;4931;44.874;-1.092;2022-08-21T23:43:09;101553.72;;;20.21;100.00
9784;BME280;4931;44.874;-1.092;2022-08-21T23:48:13;101544.22;;;20.22;100.00
9784;BME280;4931;44.874;-1.092;2022-08-21T23:53:20;101525.53;;;20.31;100.00
9784;BME280;4931;44.874;-1.092;2022-08-21T23:58:19;101524.09;;;20.25;100.00
